sensor_id;sensor_type;location;lat;lon;timestamp;temperature;humidity
35240;DHT22;21376;50.954;4.716;2023-05-08T00:00:15;15.70;99.90
35240;DHT22;21376;50.954;4.716;2023-05-08T00:02:42;15.80;99.90
35240;DHT22;21376;50.954;4.716;2023-05-08T00:05:08;16.00;99.90
35240;DHT22;21376;50.954;4.716;2023-05-08T00:07:40;15.70;99.90
35240;DHT22;21376;50.954;4.716;2023-05-08T00:10:06;15.70;99.90
35240;DHT22;21376;50.954;4.716;2023-05-08T00:12:32;15.70;99.90
35240;DHT22;21376;50.954;4.716;2023-05-08T00:15:01;15.60;99.90
35240;DHT22;21376;50.954;4.716;2023-05-08T00:17:27;15.50;99.90
35240;DHT22;21376;50.954;4.716;2023-05-08T00:27:20;15.60;99.90
35240;DHT22;21376;50.954;4.716;2023-05-08T00:32:15;15.60;99.90
35240;DHT22;21376;50.954;4.716;2023-05-08T00:34:45;15.70;99.90
35240;DHT22;21376;50.954;4.716;2023-05-08T00:37:14;15.80;99.90
35240;DHT22;21376;50.954;4.716;2023-05-08T00:39:42;15.90;99.90
35240;DHT22;21376;50.954;4.716;2023-05-08T00:42:11;15.70;99.90
35240;DHT22;21376;50.954;4.716;2023-05-08T00:47:08;15.40;99.90
35240;DHT22;21376;50.954;4.716;2023-05-08T00:49:47;15.50;99.90
35240;DHT22;21376;50.954;4.716;2023-05-08T00:54:46;15.50;99.90
35240;DHT22;21376;50.954;4.716;2023-05-08T00:57:16;15.50;99.90
35240;DHT22;21376;50.954;4.716;2023-05-08T00:59:44;15.50;99.90
35240;DHT22;21376;50.954;4.716;2023-05-08T01:02:11;15.50;99.90
35240;DHT22;21376;50.954;4.716;2023-05-08T01:04:41;15.50;99.90
35240;DHT22;21376;50.954;4.716;2023-05-08T01:07:12;15.20;99.90
35240;DHT22;21376;50.954;4.716;2023-05-08T01:12:09;15.20;99.90
35240;DHT22;21376;50.954;4.716;2023-05-08T01:17:56;15.20;99.90
35240;DHT22;21376;50.954;4.716;2023-05-08T01:29:07;15.10;99.90
35240;DHT22;21376;50.954;4.716;2023-05-08T01:37:11;14.70;99.90
35240;DHT22;21376;50.954;4.716;2023-05-08T01:42:30;14.60;99.90
35240;DHT22;21376;50.954;4.716;2023-05-08T01:45:10;14.50;99.90
35240;DHT22;21376;50.954;4.716;2023-05-08T01:47:40;14.60;99.90
35240;DHT22;21376;50.954;4.716;2023-05-08T01:50:13;14.60;99.90
35240;DHT22;21376;50.954;4.716;2023-05-08T01:52:47;14.70;99.90
35240;DHT22;21376;50.954;4.716;2023-05-08T01:55:16;14.70;99.90
35240;DHT22;21376;50.954;4.716;2023-05-08T01:57:48;14.70;99.90
35240;DHT22;21376;50.954;4.716;2023-05-08T02:00:18;14.90;99.90
35240;DHT22;21376;50.954;4.716;2023-05-08T02:02:45;14.90;99.90
35240;DHT22;21376;50.954;4.716;2023-05-08T02:10:27;14.90;99.90
35240;DHT22;21376;50.954;4.716;2023-05-08T02:12:54;15.00;99.90
35240;DHT22;21376;50.954;4.716;2023-05-08T02:15:21;14.90;99.90
35240;DHT22;21376;50.954;4.716;2023-05-08T02:17:50;14.90;99.90
35240;DHT22;21376;50.954;4.716;2023-05-08T02:25:49;15.00;99.90
35240;DHT22;21376;50.954;4.716;2023-05-08T02:28:17;15.00;99.90
35240;DHT22;21376;50.954;4.716;2023-05-08T02:30:43;15.10;99.90
35240;DHT22;21376;50.954;4.716;2023-05-08T02:35:42;15.30;99.90
35240;DHT22;21376;50.954;4.716;2023-05-08T02:40:58;15.30;99.90
35240;DHT22;21376;50.954;4.716;2023-05-08T02:43:28;15.10;99.90
35240;DHT22;21376;50.954;4.716;2023-05-08T02:45:58;15.10;99.90
35240;DHT22;21376;50.954;4.716;2023-05-08T02:53:45;15.10;99.90
35240;DHT22;21376;50.954;4.716;2023-05-08T02:59:37;15.30;99.90
35240;DHT22;21376;50.954;4.716;2023-05-08T03:02:31;15.40;99.90
35240;DHT22;21376;50.954;4.716;2023-05-08T03:07:25;15.60;99.90
35240;DHT22;21376;50.954;4.716;2023-05-08T03:09:59;15.80;99.90
35240;DHT22;21376;50.954;4.716;2023-05-08T03:12:29;15.80;99.90
35240;DHT22;21376;50.954;4.716;2023-05-08T03:22:41;15.40;99.90
35240;DHT22;21376;50.954;4.716;2023-05-08T03:25:08;15.30;99.90
35240;DHT22;21376;50.954;4.716;2023-05-08T03:27:35;15.30;99.90
35240;DHT22;21376;50.954;4.716;2023-05-08T03:30:03;15.40;99.90
35240;DHT22;21376;50.954;4.716;2023-05-08T03:34:58;15.30;99.90
35240;DHT22;21376;50.954;4.716;2023-05-08T03:40:05;15.30;99.90
35240;DHT22;21376;50.954;4.716;2023-05-08T03:42:36;15.40;99.90
35240;DHT22;21376;50.954;4.716;2023-05-08T03:45:03;15.60;99.90
35240;DHT22;21376;50.954;4.716;2023-05-08T03:47:30;15.40;99.90
35240;DHT22;21376;50.954;4.716;2023-05-08T03:49:58;15.50;99.90
35240;DHT22;21376;50.954;4.716;2023-05-08T03:55:18;15.50;99.90
35240;DHT22;21376;50.954;4.716;2023-05-08T03:57:55;15.50;99.90
35240;DHT22;21376;50.954;4.716;2023-05-08T04:08:40;15.50;99.90
35240;DHT22;21376;50.954;4.716;2023-05-08T04:11:16;15.50;99.90
35240;DHT22;21376;50.954;4.716;2023-05-08T04:13:44;15.40;99.90
35240;DHT22;21376;50.954;4.716;2023-05-08T04:16:19;15.50;99.90
35240;DHT22;21376;50.954;4.716;2023-05-08T04:18:46;15.40;99.90
35240;DHT22;21376;50.954;4.716;2023-05-08T04:21:18;15.40;99.90
35240;DHT22;21376;50.954;4.716;2023-05-08T04:23:45;15.40;99.90
35240;DHT22;21376;50.954;4.716;2023-05-08T04:26:12;15.30;99.90
35240;DHT22;21376;50.954;4.716;2023-05-08T04:28:38;15.50;99.90
35240;DHT22;21376;50.954;4.716;2023-05-08T04:31:07;15.50;99.90
35240;DHT22;21376;50.954;4.716;2023-05-08T04:33:44;15.50;99.90
35240;DHT22;21376;50.954;4.716;2023-05-08T04:36:11;15.40;99.90
35240;DHT22;21376;50.954;4.716;2023-05-08T04:41:14;15.30;99.90
35240;DHT22;21376;50.954;4.716;2023-05-08T04:43:40;15.30;99.90
35240;DHT22;21376;50.954;4.716;2023-05-08T04:46:09;15.30;99.90
35240;DHT22;21376;50.954;4.716;2023-05-08T04:48:37;15.20;99.90
35240;DHT22;21376;50.954;4.716;2023-05-08T04:51:04;15.40;99.90
35240;DHT22;21376;50.954;4.716;2023-05-08T04:53:30;15.50;99.90
35240;DHT22;21376;50.954;4.716;2023-05-08T04:56:03;15.30;99.90
35240;DHT22;21376;50.954;4.716;2023-05-08T04:58:35;15.30;99.90
35240;DHT22;21376;50.954;4.716;2023-05-08T05:01:04;15.20;99.90
35240;DHT22;21376;50.954;4.716;2023-05-08T05:03:42;15.40;99.90
35240;DHT22;21376;50.954;4.716;2023-05-08T05:08:40;15.40;99.90
35240;DHT22;21376;50.954;4.716;2023-05-08T05:13:49;15.40;99.90
35240;DHT22;21376;50.954;4.716;2023-05-08T05:16:15;15.50;99.90
35240;DHT22;21376;50.954;4.716;2023-05-08T05:18:43;15.50;99.90
35240;DHT22;21376;50.954;4.716;2023-05-08T05:21:12;15.70;99.90
35240;DHT22;21376;50.954;4.716;2023-05-08T05:23:40;15.30;99.90
35240;DHT22;21376;50.954;4.716;2023-05-08T05:26:06;15.50;99.90
35240;DHT22;21376;50.954;4.716;2023-05-08T05:28:35;15.50;99.90
35240;DHT22;21376;50.954;4.716;2023-05-08T05:31:01;15.50;99.90
35240;DHT22;21376;50.954;4.716;2023-05-08T05:35:58;15.70;99.90
35240;DHT22;21376;50.954;4.716;2023-05-08T05:38:26;15.90;99.90
35240;DHT22;21376;50.954;4.716;2023-05-08T05:40:55;15.90;99.90
35240;DHT22;21376;50.954;4.716;2023-05-08T05:43:22;15.90;99.90
35240;DHT22;21376;50.954;4.716;2023-05-08T05:45:52;16.10;99.90
35240;DHT22;21376;50.954;4.716;2023-05-08T05:48:23;16.10;99.90
35240;DHT22;21376;50.954;4.716;2023-05-08T05:50:48;15.90;99.90
35240;DHT22;21376;50.954;4.716;2023-05-08T05:53:15;16.00;99.90
35240;DHT22;21376;50.954;4.716;2023-05-08T05:55:49;15.90;99.90
35240;DHT22;21376;50.954;4.716;2023-05-08T05:58:15;16.00;99.90
35240;DHT22;21376;50.954;4.716;2023-05-08T06:06:04;16.00;99.90
35240;DHT22;21376;50.954;4.716;2023-05-08T06:08:31;16.00;99.90
35240;DHT22;21376;50.954;4.716;2023-05-08T06:13:26;16.10;99.90
35240;DHT22;21376;50.954;4.716;2023-05-08T06:15:55;16.10;99.90
35240;DHT22;21376;50.954;4.716;2023-05-08T06:18:21;16.20;99.90
35240;DHT22;21376;50.954;4.716;2023-05-08T06:20:57;16.30;99.90
35240;DHT22;21376;50.954;4.716;2023-05-08T06:23:24;16.30;99.90
35240;DHT22;21376;50.954;4.716;2023-05-08T06:25:53;16.40;99.90
35240;DHT22;21376;50.954;4.716;2023-05-08T06:33:26;16.90;99.90
35240;DHT22;21376;50.954;4.716;2023-05-08T06:38:49;16.90;99.90
35240;DHT22;21376;50.954;4.716;2023-05-08T06:41:29;17.20;99.90
35240;DHT22;21376;50.954;4.716;2023-05-08T06:43:55;17.30;99.90
35240;DHT22;21376;50.954;4.716;2023-05-08T06:48:53;17.40;99.90
35240;DHT22;21376;50.954;4.716;2023-05-08T06:53:50;17.60;99.90
35240;DHT22;21376;50.954;4.716;2023-05-08T06:56:17;17.60;99.90
35240;DHT22;21376;50.954;4.716;2023-05-08T06:58:43;17.80;99.90
35240;DHT22;21376;50.954;4.716;2023-05-08T07:01:08;17.80;99.90
35240;DHT22;21376;50.954;4.716;2023-05-08T07:03:35;18.00;99.90
35240;DHT22;21376;50.954;4.716;2023-05-08T07:06:10;18.20;99.90
35240;DHT22;21376;50.954;4.716;2023-05-08T07:08:42;18.30;99.90
35240;DHT22;21376;50.954;4.716;2023-05-08T07:11:11;18.30;99.90
35240;DHT22;21376;50.954;4.716;2023-05-08T07:13:39;18.10;99.90
35240;DHT22;21376;50.954;4.716;2023-05-08T07:16:10;18.20;99.90
35240;DHT22;21376;50.954;4.716;2023-05-08T07:18:51;18.40;99.90
35240;DHT22;21376;50.954;4.716;2023-05-08T07:27:30;19.20;99.90
35240;DHT22;21376;50.954;4.716;2023-05-08T07:29:55;19.20;99.90
35240;DHT22;21376;50.954;4.716;2023-05-08T07:34:54;19.40;99.90
35240;DHT22;21376;50.954;4.716;2023-05-08T07:37:23;19.70;99.90
35240;DHT22;21376;50.954;4.716;2023-05-08T07:39:51;19.80;99.90
35240;DHT22;21376;50.954;4.716;2023-05-08T07:45:18;20.40;99.90
35240;DHT22;21376;50.954;4.716;2023-05-08T07:50:14;20.50;99.90
35240;DHT22;21376;50.954;4.716;2023-05-08T07:52:41;20.10;99.90
35240;DHT22;21376;50.954;4.716;2023-05-08T07:55:12;20.10;99.90
35240;DHT22;21376;50.954;4.716;2023-05-08T07:57:41;20.00;99.90
35240;DHT22;21376;50.954;4.716;2023-05-08T08:05:06;20.60;99.90
35240;DHT22;21376;50.954;4.716;2023-05-08T08:07:35;21.10;99.90
35240;DHT22;21376;50.954;4.716;2023-05-08T08:13:18;20.90;99.90
35240;DHT22;21376;50.954;4.716;2023-05-08T08:15:47;19.90;99.90
35240;DHT22;21376;50.954;4.716;2023-05-08T08:24:07;19.10;99.90
35240;DHT22;21376;50.954;4.716;2023-05-08T08:26:35;19.10;99.90
35240;DHT22;21376;50.954;4.716;2023-05-08T08:29:03;19.00;99.90
35240;DHT22;21376;50.954;4.716;2023-05-08T08:31:31;18.80;99.90
35240;DHT22;21376;50.954;4.716;2023-05-08T08:34:00;18.70;99.90
35240;DHT22;21376;50.954;4.716;2023-05-08T08:36:35;18.40;99.90
35240;DHT22;21376;50.954;4.716;2023-05-08T08:39:04;18.10;99.90
35240;DHT22;21376;50.954;4.716;2023-05-08T08:41:33;18.20;99.90
35240;DHT22;21376;50.954;4.716;2023-05-08T08:44:02;18.50;99.90
35240;DHT22;21376;50.954;4.716;2023-05-08T08:46:33;19.10;99.90
35240;DHT22;21376;50.954;4.716;2023-05-08T08:49:13;19.30;99.90
35240;DHT22;21376;50.954;4.716;2023-05-08T08:51:48;19.40;99.90
35240;DHT22;21376;50.954;4.716;2023-05-08T08:54:19;20.10;99.90
35240;DHT22;21376;50.954;4.716;2023-05-08T08:56:49;20.00;99.90
35240;DHT22;21376;50.954;4.716;2023-05-08T08:59:16;20.70;99.90
35240;DHT22;21376;50.954;4.716;2023-05-08T09:01:49;21.30;99.90
35240;DHT22;21376;50.954;4.716;2023-05-08T09:04:15;22.60;99.90
35240;DHT22;21376;50.954;4.716;2023-05-08T09:06:41;25.90;99.90
35240;DHT22;21376;50.954;4.716;2023-05-08T09:09:07;28.70;99.90
35240;DHT22;21376;50.954;4.716;2023-05-08T09:11:34;29.10;99.90
35240;DHT22;21376;50.954;4.716;2023-05-08T09:14:00;28.70;99.90
35240;DHT22;21376;50.954;4.716;2023-05-08T09:16:27;27.20;99.90
35240;DHT22;21376;50.954;4.716;2023-05-08T09:18:53;26.20;99.90
35240;DHT22;21376;50.954;4.716;2023-05-08T09:21:20;26.30;99.90
35240;DHT22;21376;50.954;4.716;2023-05-08T09:23:54;26.50;99.90
35240;DHT22;21376;50.954;4.716;2023-05-08T09:26:42;26.40;99.90
35240;DHT22;21376;50.954;4.716;2023-05-08T09:29:10;26.50;99.90
35240;DHT22;21376;50.954;4.716;2023-05-08T09:31:42;25.70;99.90
35240;DHT22;21376;50.954;4.716;2023-05-08T09:34:09;25.20;99.90
35240;DHT22;21376;50.954;4.716;2023-05-08T09:36:35;24.30;99.90
35240;DHT22;21376;50.954;4.716;2023-05-08T09:39:01;23.80;99.90
35240;DHT22;21376;50.954;4.716;2023-05-08T09:41:28;23.40;99.90
35240;DHT22;21376;50.954;4.716;2023-05-08T09:44:05;23.20;99.90
35240;DHT22;21376;50.954;4.716;2023-05-08T09:46:33;23.10;99.90
35240;DHT22;21376;50.954;4.716;2023-05-08T09:49:02;23.30;99.90
35240;DHT22;21376;50.954;4.716;2023-05-08T09:51:38;23.20;99.90
35240;DHT22;21376;50.954;4.716;2023-05-08T09:54:18;23.40;99.90
35240;DHT22;21376;50.954;4.716;2023-05-08T09:56:44;23.40;99.90
35240;DHT22;21376;50.954;4.716;2023-05-08T09:59:23;23.30;99.90
35240;DHT22;21376;50.954;4.716;2023-05-08T10:01:50;23.30;99.90
35240;DHT22;21376;50.954;4.716;2023-05-08T10:04:16;23.60;99.90
35240;DHT22;21376;50.954;4.716;2023-05-08T10:06:41;23.80;99.90
35240;DHT22;21376;50.954;4.716;2023-05-08T10:09:08;23.90;99.90
35240;DHT22;21376;50.954;4.716;2023-05-08T10:11:34;23.90;99.90
35240;DHT22;21376;50.954;4.716;2023-05-08T10:14:00;23.70;99.90
35240;DHT22;21376;50.954;4.716;2023-05-08T10:16:26;23.60;99.90
35240;DHT22;21376;50.954;4.716;2023-05-08T10:18:54;23.40;99.90
35240;DHT22;21376;50.954;4.716;2023-05-08T10:21:22;23.20;99.90
35240;DHT22;21376;50.954;4.716;2023-05-08T10:23:50;23.30;99.90
35240;DHT22;21376;50.954;4.716;2023-05-08T10:26:24;23.80;99.90
35240;DHT22;21376;50.954;4.716;2023-05-08T10:28:57;24.10;99.90
35240;DHT22;21376;50.954;4.716;2023-05-08T10:31:24;24.00;99.90
35240;DHT22;21376;50.954;4.716;2023-05-08T10:33:55;23.70;99.90
35240;DHT22;21376;50.954;4.716;2023-05-08T10:36:22;24.10;99.90
35240;DHT22;21376;50.954;4.716;2023-05-08T10:38:49;23.70;99.90
35240;DHT22;21376;50.954;4.716;2023-05-08T10:41:15;23.30;99.90
35240;DHT22;21376;50.954;4.716;2023-05-08T10:43:41;23.50;99.90
35240;DHT22;21376;50.954;4.716;2023-05-08T10:46:14;23.60;99.90
35240;DHT22;21376;50.954;4.716;2023-05-08T10:49:02;23.10;99.90
35240;DHT22;21376;50.954;4.716;2023-05-08T10:51:39;22.70;99.90
35240;DHT22;21376;50.954;4.716;2023-05-08T10:54:17;22.70;99.90
35240;DHT22;21376;50.954;4.716;2023-05-08T10:56:43;22.80;99.90
35240;DHT22;21376;50.954;4.716;2023-05-08T10:59:16;22.80;99.90
35240;DHT22;21376;50.954;4.716;2023-05-08T11:01:42;22.90;99.90
35240;DHT22;21376;50.954;4.716;2023-05-08T11:04:21;23.20;99.90
35240;DHT22;21376;50.954;4.716;2023-05-08T11:06:47;23.60;99.90
35240;DHT22;21376;50.954;4.716;2023-05-08T11:12:25;24.50;99.90
35240;DHT22;21376;50.954;4.716;2023-05-08T11:15:01;24.80;99.90
35240;DHT22;21376;50.954;4.716;2023-05-08T11:17:27;24.90;99.90
35240;DHT22;21376;50.954;4.716;2023-05-08T11:19:55;24.70;99.90
35240;DHT22;21376;50.954;4.716;2023-05-08T11:22:22;24.70;99.90
35240;DHT22;21376;50.954;4.716;2023-05-08T11:24:53;24.40;99.90
35240;DHT22;21376;50.954;4.716;2023-05-08T11:32:57;23.80;99.90
35240;DHT22;21376;50.954;4.716;2023-05-08T11:41:22;24.50;99.90
35240;DHT22;21376;50.954;4.716;2023-05-08T11:46:24;26.00;99.90
35240;DHT22;21376;50.954;4.716;2023-05-08T11:48:57;26.60;99.90
35240;DHT22;21376;50.954;4.716;2023-05-08T11:51:24;26.10;99.90
35240;DHT22;21376;50.954;4.716;2023-05-08T11:56:27;25.50;99.90
35240;DHT22;21376;50.954;4.716;2023-05-08T11:59:10;24.80;99.90
35240;DHT22;21376;50.954;4.716;2023-05-08T12:01:37;25.10;99.90
35240;DHT22;21376;50.954;4.716;2023-05-08T12:04:05;25.90;99.90
35240;DHT22;21376;50.954;4.716;2023-05-08T12:06:34;25.80;99.90
35240;DHT22;21376;50.954;4.716;2023-05-08T12:11:32;25.50;99.90
35240;DHT22;21376;50.954;4.716;2023-05-08T12:14:01;25.10;99.90
35240;DHT22;21376;50.954;4.716;2023-05-08T12:16:33;24.40;99.90
35240;DHT22;21376;50.954;4.716;2023-05-08T12:19:00;24.20;99.90
35240;DHT22;21376;50.954;4.716;2023-05-08T12:21:27;24.40;99.90
35240;DHT22;21376;50.954;4.716;2023-05-08T12:29:08;25.20;99.90
35240;DHT22;21376;50.954;4.716;2023-05-08T12:31:36;26.80;99.90
35240;DHT22;21376;50.954;4.716;2023-05-08T12:34:05;26.90;99.90
35240;DHT22;21376;50.954;4.716;2023-05-08T12:36:35;27.10;99.90
35240;DHT22;21376;50.954;4.716;2023-05-08T12:39:16;27.80;99.90
35240;DHT22;21376;50.954;4.716;2023-05-08T12:41:45;28.50;99.90
35240;DHT22;21376;50.954;4.716;2023-05-08T12:44:18;28.90;99.90
35240;DHT22;21376;50.954;4.716;2023-05-08T12:49:31;30.20;99.90
35240;DHT22;21376;50.954;4.716;2023-05-08T12:52:05;29.80;99.90
35240;DHT22;21376;50.954;4.716;2023-05-08T12:54:46;28.70;99.90
35240;DHT22;21376;50.954;4.716;2023-05-08T12:57:13;27.90;99.90
35240;DHT22;21376;50.954;4.716;2023-05-08T12:59:40;28.00;99.90
35240;DHT22;21376;50.954;4.716;2023-05-08T13:02:16;28.20;99.90
35240;DHT22;21376;50.954;4.716;2023-05-08T13:04:45;27.70;99.90
35240;DHT22;21376;50.954;4.716;2023-05-08T13:07:12;27.80;99.90
35240;DHT22;21376;50.954;4.716;2023-05-08T13:15:03;28.60;99.90
35240;DHT22;21376;50.954;4.716;2023-05-08T13:17:39;27.80;99.90
35240;DHT22;21376;50.954;4.716;2023-05-08T13:20:06;27.10;99.90
35240;DHT22;21376;50.954;4.716;2023-05-08T13:22:32;27.00;99.90
35240;DHT22;21376;50.954;4.716;2023-05-08T13:24:59;26.90;99.90
35240;DHT22;21376;50.954;4.716;2023-05-08T13:27:26;26.70;99.90
35240;DHT22;21376;50.954;4.716;2023-05-08T13:29:55;26.80;99.90
35240;DHT22;21376;50.954;4.716;2023-05-08T13:32:28;27.10;99.90
35240;DHT22;21376;50.954;4.716;2023-05-08T13:37:31;27.10;99.90
35240;DHT22;21376;50.954;4.716;2023-05-08T13:47:23;25.20;99.90
35240;DHT22;21376;50.954;4.716;2023-05-08T13:49:52;25.20;99.90
35240;DHT22;21376;50.954;4.716;2023-05-08T13:52:23;24.90;99.90
35240;DHT22;21376;50.954;4.716;2023-05-08T13:54:52;25.10;99.90
35240;DHT22;21376;50.954;4.716;2023-05-08T13:59:50;25.30;99.90
35240;DHT22;21376;50.954;4.716;2023-05-08T14:02:18;25.20;99.90
35240;DHT22;21376;50.954;4.716;2023-05-08T14:12:57;24.50;99.90
35240;DHT22;21376;50.954;4.716;2023-05-08T14:15:24;24.00;99.90
35240;DHT22;21376;50.954;4.716;2023-05-08T14:20:19;23.60;99.90
35240;DHT22;21376;50.954;4.716;2023-05-08T14:22:54;23.80;99.90
35240;DHT22;21376;50.954;4.716;2023-05-08T14:25:19;24.10;99.90
35240;DHT22;21376;50.954;4.716;2023-05-08T14:27:47;23.80;99.90
35240;DHT22;21376;50.954;4.716;2023-05-08T14:30:13;24.10;99.90
35240;DHT22;21376;50.954;4.716;2023-05-08T14:32:40;24.30;99.90
35240;DHT22;21376;50.954;4.716;2023-05-08T14:35:16;24.40;99.90
35240;DHT22;21376;50.954;4.716;2023-05-08T14:37:44;24.00;99.90
35240;DHT22;21376;50.954;4.716;2023-05-08T14:40:12;24.00;99.90
35240;DHT22;21376;50.954;4.716;2023-05-08T14:45:06;24.00;99.90
35240;DHT22;21376;50.954;4.716;2023-05-08T14:47:35;23.90;99.90
35240;DHT22;21376;50.954;4.716;2023-05-08T14:50:02;23.90;99.90
35240;DHT22;21376;50.954;4.716;2023-05-08T14:52:39;23.80;99.90
35240;DHT22;21376;50.954;4.716;2023-05-08T14:55:07;23.80;99.90
35240;DHT22;21376;50.954;4.716;2023-05-08T14:57:36;23.80;99.90
35240;DHT22;21376;50.954;4.716;2023-05-08T15:00:04;23.90;99.90
35240;DHT22;21376;50.954;4.716;2023-05-08T15:05:12;23.40;99.90
35240;DHT22;21376;50.954;4.716;2023-05-08T15:10:10;24.00;99.90
35240;DHT22;21376;50.954;4.716;2023-05-08T15:12:39;23.90;99.90
35240;DHT22;21376;50.954;4.716;2023-05-08T15:15:06;24.10;99.90
35240;DHT22;21376;50.954;4.716;2023-05-08T15:17:33;23.80;99.90
35240;DHT22;21376;50.954;4.716;2023-05-08T15:20:04;23.50;99.90
35240;DHT22;21376;50.954;4.716;2023-05-08T15:22:30;23.10;99.90
35240;DHT22;21376;50.954;4.716;2023-05-08T15:24:57;23.00;99.90
35240;DHT22;21376;50.954;4.716;2023-05-08T15:27:28;22.90;99.90
35240;DHT22;21376;50.954;4.716;2023-05-08T15:29:54;23.10;99.90
35240;DHT22;21376;50.954;4.716;2023-05-08T15:32:35;22.80;99.90
35240;DHT22;21376;50.954;4.716;2023-05-08T15:37:31;23.10;99.90
35240;DHT22;21376;50.954;4.716;2023-05-08T15:39:57;22.90;99.90
35240;DHT22;21376;50.954;4.716;2023-05-08T15:42:26;23.00;99.90
35240;DHT22;21376;50.954;4.716;2023-05-08T15:44:57;22.90;99.90
35240;DHT22;21376;50.954;4.716;2023-05-08T15:47:23;23.00;99.90
35240;DHT22;21376;50.954;4.716;2023-05-08T15:49:55;22.80;99.90
35240;DHT22;21376;50.954;4.716;2023-05-08T15:52:22;22.60;99.90
35240;DHT22;21376;50.954;4.716;2023-05-08T15:54:52;22.80;99.90
35240;DHT22;21376;50.954;4.716;2023-05-08T15:57:18;22.60;99.90
35240;DHT22;21376;50.954;4.716;2023-05-08T15:59:48;22.30;99.90
35240;DHT22;21376;50.954;4.716;2023-05-08T16:02:14;22.10;99.90
35240;DHT22;21376;50.954;4.716;2023-05-08T16:07:10;21.80;99.90
35240;DHT22;21376;50.954;4.716;2023-05-08T16:09:42;21.60;99.90
35240;DHT22;21376;50.954;4.716;2023-05-08T16:12:11;21.70;99.90
35240;DHT22;21376;50.954;4.716;2023-05-08T16:19:27;21.50;99.90
35240;DHT22;21376;50.954;4.716;2023-05-08T16:21:55;21.60;99.90
35240;DHT22;21376;50.954;4.716;2023-05-08T16:24:21;21.60;99.90
35240;DHT22;21376;50.954;4.716;2023-05-08T16:26:48;21.40;99.90
35240;DHT22;21376;50.954;4.716;2023-05-08T16:29:16;21.10;99.90
35240;DHT22;21376;50.954;4.716;2023-05-08T16:31:48;21.20;99.90
35240;DHT22;21376;50.954;4.716;2023-05-08T16:36:45;20.70;99.90
35240;DHT22;21376;50.954;4.716;2023-05-08T16:39:12;20.60;99.90
35240;DHT22;21376;50.954;4.716;2023-05-08T16:41:42;20.50;99.90
35240;DHT22;21376;50.954;4.716;2023-05-08T16:44:09;20.70;99.90
35240;DHT22;21376;50.954;4.716;2023-05-08T16:46:36;20.70;99.90
35240;DHT22;21376;50.954;4.716;2023-05-08T16:49:01;20.70;99.90
35240;DHT22;21376;50.954;4.716;2023-05-08T16:51:30;20.90;99.90
35240;DHT22;21376;50.954;4.716;2023-05-08T16:56:32;21.20;99.90
35240;DHT22;21376;50.954;4.716;2023-05-08T16:58:58;21.20;99.90
35240;DHT22;21376;50.954;4.716;2023-05-08T17:01:25;21.10;99.90
35240;DHT22;21376;50.954;4.716;2023-05-08T17:03:51;21.00;99.90
35240;DHT22;21376;50.954;4.716;2023-05-08T17:06:22;20.90;99.90
35240;DHT22;21376;50.954;4.716;2023-05-08T17:08:51;20.80;99.90
35240;DHT22;21376;50.954;4.716;2023-05-08T17:13:47;20.60;99.90
35240;DHT22;21376;50.954;4.716;2023-05-08T17:16:29;20.70;99.90
35240;DHT22;21376;50.954;4.716;2023-05-08T17:18:54;20.50;99.90
35240;DHT22;21376;50.954;4.716;2023-05-08T17:21:20;20.10;99.90
35240;DHT22;21376;50.954;4.716;2023-05-08T17:23:48;20.00;99.90
35240;DHT22;21376;50.954;4.716;2023-05-08T17:26:14;20.10;99.90
35240;DHT22;21376;50.954;4.716;2023-05-08T17:28:45;19.90;99.90
35240;DHT22;21376;50.954;4.716;2023-05-08T17:31:12;19.90;99.90
35240;DHT22;21376;50.954;4.716;2023-05-08T17:33:40;20.00;99.90
35240;DHT22;21376;50.954;4.716;2023-05-08T17:36:07;19.80;99.90
35240;DHT22;21376;50.954;4.716;2023-05-08T17:41:11;19.80;99.90
35240;DHT22;21376;50.954;4.716;2023-05-08T17:46:06;19.30;99.90
35240;DHT22;21376;50.954;4.716;2023-05-08T17:51:03;19.40;99.90
35240;DHT22;21376;50.954;4.716;2023-05-08T17:53:29;19.40;99.90
35240;DHT22;21376;50.954;4.716;2023-05-08T17:55:56;19.30;99.90
35240;DHT22;21376;50.954;4.716;2023-05-08T17:58:22;19.20;99.90
35240;DHT22;21376;50.954;4.716;2023-05-08T18:00:48;19.30;99.90
35240;DHT22;21376;50.954;4.716;2023-05-08T18:03:14;19.30;99.90
35240;DHT22;21376;50.954;4.716;2023-05-08T18:05:42;19.50;99.90
35240;DHT22;21376;50.954;4.716;2023-05-08T18:08:08;19.20;99.90
35240;DHT22;21376;50.954;4.716;2023-05-08T18:10:34;19.10;99.90
35240;DHT22;21376;50.954;4.716;2023-05-08T18:13:00;19.00;99.90
35240;DHT22;21376;50.954;4.716;2023-05-08T18:15:25;18.90;99.90
35240;DHT22;21376;50.954;4.716;2023-05-08T18:17:52;18.80;99.90
35240;DHT22;21376;50.954;4.716;2023-05-08T18:20:20;18.70;99.90
35240;DHT22;21376;50.954;4.716;2023-05-08T18:22:46;18.70;99.90
35240;DHT22;21376;50.954;4.716;2023-05-08T18:25:12;18.60;99.90
35240;DHT22;21376;50.954;4.716;2023-05-08T18:27:39;18.60;99.90
35240;DHT22;21376;50.954;4.716;2023-05-08T18:30:07;18.70;99.90
35240;DHT22;21376;50.954;4.716;2023-05-08T18:32:33;18.60;99.90
35240;DHT22;21376;50.954;4.716;2023-05-08T18:34:59;18.60;99.90
35240;DHT22;21376;50.954;4.716;2023-05-08T18:48:18;18.50;99.90
35240;DHT22;21376;50.954;4.716;2023-05-08T18:50:44;18.20;99.90
35240;DHT22;21376;50.954;4.716;2023-05-08T18:53:14;18.20;99.90
35240;DHT22;21376;50.954;4.716;2023-05-08T18:55:42;18.10;99.90
35240;DHT22;21376;50.954;4.716;2023-05-08T18:58:08;18.00;99.90
35240;DHT22;21376;50.954;4.716;2023-05-08T19:00:35;17.90;99.90
35240;DHT22;21376;50.954;4.716;2023-05-08T19:03:04;17.90;99.90
35240;DHT22;21376;50.954;4.716;2023-05-08T19:08:06;17.40;99.90
35240;DHT22;21376;50.954;4.716;2023-05-08T19:10:34;17.50;99.90
35240;DHT22;21376;50.954;4.716;2023-05-08T19:13:02;17.40;99.90
35240;DHT22;21376;50.954;4.716;2023-05-08T19:15:28;17.30;99.90
35240;DHT22;21376;50.954;4.716;2023-05-08T19:17:57;17.20;99.90
35240;DHT22;21376;50.954;4.716;2023-05-08T19:20:24;17.10;99.90
35240;DHT22;21376;50.954;4.716;2023-05-08T19:22:53;16.90;99.90
35240;DHT22;21376;50.954;4.716;2023-05-08T19:25:23;16.80;99.90
35240;DHT22;21376;50.954;4.716;2023-05-08T19:27:49;16.70;99.90
35240;DHT22;21376;50.954;4.716;2023-05-08T19:30:16;16.70;99.90
35240;DHT22;21376;50.954;4.716;2023-05-08T19:32:45;16.80;99.90
35240;DHT22;21376;50.954;4.716;2023-05-08T19:35:12;16.80;99.90
35240;DHT22;21376;50.954;4.716;2023-05-08T19:37:38;16.80;99.90
35240;DHT22;21376;50.954;4.716;2023-05-08T19:40:05;16.80;99.90
35240;DHT22;21376;50.954;4.716;2023-05-08T19:42:31;16.90;99.90
35240;DHT22;21376;50.954;4.716;2023-05-08T19:44:59;17.00;99.90
35240;DHT22;21376;50.954;4.716;2023-05-08T19:47:29;16.90;99.90
35240;DHT22;21376;50.954;4.716;2023-05-08T19:49:57;16.80;99.90
35240;DHT22;21376;50.954;4.716;2023-05-08T19:52:25;16.80;99.90